Time;durP1;ratioP1;P1;durP2;ratioP2;P2;SDS_P1;SDS_P2;PMS_P1;PMS_P2;Temp;Humidity;BMP_temperature;BMP_pressure;BME280_temperature;BME280_humidity;BME280_pressure;Samples;Min_cycle;Max_cycle;Signal;HPM_P1;HPM_P2
2022/02/22 00:00:07;;;;;;;1.10;1.00;;;;;;;-1.69;86.09;98877.38;5045065;28;20555;-62
2022/02/22 00:02:33;;;;;;;1.75;1.52;;;;;;;-1.61;85.99;98887.69;5045544;28;20021;-63
2022/02/22 00:04:58;;;;;;;1.33;1.10;;;;;;;-1.63;86.07;98897.84;5045819;28;20080;-62
2022/02/22 00:07:24;;;;;;;1.95;1.02;;;;;;;-1.65;85.96;98911.38;5046370;28;20033;-62
2022/02/22 00:09:49;;;;;;;1.83;1.08;;;;;;;-1.65;85.65;98902.06;5046351;28;20025;-63
2022/02/22 00:12:16;;;;;;;2.00;1.23;;;;;;;-1.67;85.50;98910.47;5046200;28;20362;-63
2022/02/22 00:14:42;;;;;;;1.17;0.77;;;;;;;-1.76;85.33;98885.75;5045840;28;20061;-63
2022/02/22 00:17:07;;;;;;;2.22;1.25;;;;;;;-1.68;85.33;98916.41;5046208;28;20030;-62
2022/02/22 00:19:33;;;;;;;1.48;0.95;;;;;;;-1.67;85.42;98925.75;5045067;28;20638;-64
2022/02/22 00:21:58;;;;;;;1.70;1.13;;;;;;;-1.74;85.68;98927.31;5044697;28;20025;-63
2022/02/22 00:24:24;;;;;;;1.38;1.05;;;;;;;-1.76;85.67;98962.09;5045431;28;20139;-63
2022/02/22 00:26:49;;;;;;;2.80;1.02;;;;;;;-1.81;85.67;98974.72;5044798;28;20077;-62
2022/02/22 00:29:15;;;;;;;1.48;1.20;;;;;;;-1.77;85.90;98983.25;5045291;28;20029;-62
2022/02/22 00:31:41;;;;;;;2.08;1.20;;;;;;;-1.88;85.58;98978.84;5045897;28;20032;-62
2022/02/22 00:34:07;;;;;;;1.95;1.20;;;;;;;-1.78;85.58;99004.44;5045736;28;20029;-62
2022/02/22 00:36:34;;;;;;;1.23;1.10;;;;;;;-1.79;85.73;99002.75;5045798;28;20013;-63
2022/02/22 00:39:00;;;;;;;3.97;1.20;;;;;;;-1.79;85.66;98998.47;5045735;28;20052;-63
2022/02/22 00:41:25;;;;;;;5.90;1.10;;;;;;;-1.76;85.55;98988.38;5045759;28;20026;-63
2022/02/22 00:43:51;;;;;;;3.03;1.25;;;;;;;-1.72;84.99;98988.41;5045489;28;20104;-63
2022/02/22 00:46:16;;;;;;;1.35;1.10;;;;;;;-1.76;85.29;98993.44;5045812;28;20425;-63
2022/02/22 00:48:42;;;;;;;3.40;1.00;;;;;;;-1.76;85.17;98996.00;5045671;28;20302;-63
2022/02/22 00:51:07;;;;;;;1.77;1.10;;;;;;;-1.75;84.74;99014.69;5045510;28;20024;-63
2022/02/22 00:53:33;;;;;;;3.30;0.98;;;;;;;-1.81;84.90;99019.66;5045618;28;20035;-63
2022/02/22 00:55:58;;;;;;;1.00;0.90;;;;;;;-1.82;85.39;99018.78;5045406;28;20028;-63
2022/02/22 00:58:24;;;;;;;1.30;1.17;;;;;;;-1.77;84.64;99026.50;5045164;28;20636;-63
2022/02/22 01:00:49;;;;;;;1.63;1.10;;;;;;;-1.76;84.65;99016.34;5045338;28;20374;-63
2022/02/22 01:03:15;;;;;;;2.22;1.02;;;;;;;-1.79;84.46;99039.19;5045188;28;20076;-63
2022/02/22 01:05:40;;;;;;;3.65;2.65;;;;;;;-1.79;84.48;99041.75;5045325;28;20017;-62
2022/02/22 01:08:06;;;;;;;3.67;1.45;;;;;;;-1.76;84.72;99039.25;5045216;28;20037;-63
2022/02/22 01:10:31;;;;;;;4.05;1.30;;;;;;;-1.73;84.57;99047.78;5045055;28;20035;-63
2022/02/22 01:12:57;;;;;;;0.98;0.88;;;;;;;-1.73;84.00;99047.78;5044865;28;20029;-62
2022/02/22 01:15:23;;;;;;;2.55;1.13;;;;;;;-1.73;83.54;99065.59;5043660;28;20116;-62
2022/02/22 01:17:49;;;;;;;1.70;1.05;;;;;;;-1.72;83.66;99065.63;5044744;28;20030;-62
2022/02/22 01:20:14;;;;;;;3.25;1.60;;;;;;;-1.75;83.61;99070.66;5044734;28;20049;-63
2022/02/22 01:22:40;;;;;;;3.85;1.10;;;;;;;-1.76;83.75;99069.78;5044921;28;20687;-63
2022/02/22 01:25:07;;;;;;;4.25;1.40;;;;;;;-1.76;83.79;99074.88;5044430;28;20381;-63
2022/02/22 01:27:33;;;;;;;1.73;1.13;;;;;;;-1.75;83.70;99086.78;5044623;28;20029;-63
2022/02/22 01:29:59;;;;;;;1.98;1.10;;;;;;;-1.75;83.81;99086.78;5044568;28;20026;-62
2022/02/22 01:32:25;;;;;;;2.28;1.02;;;;;;;-1.79;83.38;99095.19;5044728;28;20029;-63
2022/02/22 01:34:50;;;;;;;2.00;1.10;;;;;;;-1.80;83.41;99097.69;5044655;28;20061;-63
2022/02/22 01:37:15;;;;;;;2.50;1.20;;;;;;;-1.83;83.37;99098.50;5044655;28;20025;-63
2022/02/22 01:39:41;;;;;;;3.95;1.77;;;;;;;-1.82;83.33;99097.66;5044451;28;20089;-63
2022/02/22 01:42:06;;;;;;;1.38;1.10;;;;;;;-1.86;83.61;99093.34;5044470;28;20021;-63
2022/02/22 01:44:32;;;;;;;1.30;1.17;;;;;;;-1.85;83.76;99102.69;5044278;28;20080;-63
2022/02/22 01:47:02;;;;;;;2.10;1.20;;;;;;;-1.87;84.09;99112.81;5044396;28;20365;-63
2022/02/22 01:49:28;;;;;;;1.88;1.05;;;;;;;-1.90;83.70;99120.41;5044253;28;20026;-62
2022/02/22 01:51:54;;;;;;;2.30;1.10;;;;;;;-1.92;83.44;99123.75;5044355;28;20028;-63
2022/02/22 01:54:21;;;;;;;1.67;1.48;;;;;;;-1.97;83.79;99116.03;5044182;28;20029;-62
2022/02/22 01:56:48;;;;;;;2.00;1.10;;;;;;;-1.97;83.61;99126.19;5044098;28;20257;-64
2022/02/22 01:59:14;;;;;;;1.48;1.20;;;;;;;-2.05;83.67;99123.47;5044308;28;20054;-62
2022/02/22 02:01:40;;;;;;;1.48;1.17;;;;;;;-2.03;83.92;99134.53;5044140;28;20032;-62
2022/02/22 02:04:06;;;;;;;1.42;1.15;;;;;;;-2.07;83.80;99148.00;5044014;28;20021;-63
2022/02/22 02:06:36;;;;;;;3.92;1.30;;;;;;;-2.11;84.13;99156.41;5044160;28;20025;-63
2022/02/22 02:09:05;;;;;;;2.17;1.67;;;;;;;-2.12;84.23;99159.75;5044209;28;20067;-63
2022/02/22 02:11:48;;;;;;;2.22;1.10;;;;;;;-2.16;84.03;99160.53;5043812;28;20085;-63
2022/02/22 02:14:15;;;;;;;4.10;1.73;;;;;;;-2.19;84.01;99158.75;5043514;28;20049;-63
2022/02/22 02:16:41;;;;;;;2.25;1.08;;;;;;;-2.17;84.24;99169.81;5043666;28;20025;-63
2022/02/22 02:19:15;;;;;;;1.77;1.10;;;;;;;-2.18;84.31;99187.59;5043792;28;20025;-63
2022/02/22 02:21:42;;;;;;;3.08;1.20;;;;;;;-2.22;84.07;99190.91;5043685;28;20021;-63
2022/02/22 02:24:09;;;;;;;2.85;1.20;;;;;;;-2.24;84.23;99186.63;5043846;28;20534;-63
2022/02/22 02:26:34;;;;;;;4.35;1.52;;;;;;;-2.25;84.37;99192.53;5043789;28;20321;-63
2022/02/22 02:28:59;;;;;;;3.88;1.52;;;;;;;-2.35;84.30;99175.34;5043663;28;20300;-63
2022/02/22 02:31:25;;;;;;;2.17;1.08;;;;;;;-2.30;84.62;99185.63;5043551;28;20021;-63
2022/02/22 02:33:50;;;;;;;1.63;1.10;;;;;;;-2.29;84.47;99194.97;5043784;28;20355;-63
2022/02/22 02:36:16;;;;;;;1.75;1.23;;;;;;;-2.36;84.43;99191.41;5043411;28;20468;-63
2022/02/22 02:38:41;;;;;;;2.83;1.95;;;;;;;-2.34;84.38;99199.06;5043477;28;20021;-63
2022/02/22 02:41:07;;;;;;;2.70;1.10;;;;;;;-2.35;84.63;99205.00;5043412;28;20034;-63
2022/02/22 02:43:32;;;;;;;2.42;1.20;;;;;;;-2.36;84.72;99206.66;5042628;28;20306;-62
2022/02/22 02:45:57;;;;;;;2.30;1.30;;;;;;;-2.37;84.87;99215.13;5043404;28;20021;-63
2022/02/22 02:48:23;;;;;;;2.97;1.50;;;;;;;-2.39;84.90;99229.47;5041926;28;20119;-63
2022/02/22 02:50:48;;;;;;;1.73;1.00;;;;;;;-2.41;85.04;99237.06;5043391;28;20032;-63
2022/02/22 02:53:13;;;;;;;3.53;1.30;;;;;;;-2.40;85.08;99251.50;5043430;28;20029;-63
2022/02/22 02:55:39;;;;;;;2.42;1.30;;;;;;;-2.43;85.28;99266.66;5043282;28;20095;-63
2022/02/22 02:58:04;;;;;;;3.00;1.20;;;;;;;-2.41;85.35;99274.34;5043309;28;20021;-63
2022/02/22 03:00:29;;;;;;;1.55;1.10;;;;;;;-2.40;85.31;99288.78;5043184;28;20030;-63
2022/02/22 03:02:54;;;;;;;3.25;1.17;;;;;;;-2.47;85.37;99290.28;5043298;28;20018;-63
2022/02/22 03:05:22;;;;;;;3.03;1.40;;;;;;;-2.50;85.19;99302.91;5041939;28;20025;-62
2022/02/22 03:07:47;;;;;;;4.65;1.58;;;;;;;-2.58;84.82;99292.53;5043377;28;20021;-62
2022/02/22 03:10:12;;;;;;;1.75;1.42;;;;;;;-2.52;84.83;99304.53;5043218;28;20022;-62
2022/02/22 03:12:38;;;;;;;2.45;1.50;;;;;;;-2.53;85.16;99303.69;5043106;28;20041;-62
2022/02/22 03:15:04;;;;;;;3.05;1.40;;;;;;;-2.48;85.30;99303.81;5042844;28;20468;-62
2022/02/22 03:17:29;;;;;;;2.88;1.10;;;;;;;-2.48;85.44;99298.75;5043059;28;20025;-62
2022/02/22 03:19:55;;;;;;;2.90;1.60;;;;;;;-2.45;85.45;99303.03;5043054;28;20038;-63
2022/02/22 03:22:20;;;;;;;1.73;1.05;;;;;;;-2.45;85.57;99300.50;5043078;28;20033;-62
2022/02/22 03:24:46;;;;;;;4.18;1.50;;;;;;;-2.44;85.38;99305.59;5043029;28;20484;-63
2022/02/22 03:27:12;;;;;;;1.83;1.20;;;;;;;-2.39;85.51;99303.19;5041007;28;20026;-63
2022/02/22 03:29:37;;;;;;;3.65;1.23;;;;;;;-2.38;85.63;99304.94;5041813;28;20028;-63
2022/02/22 03:32:03;;;;;;;1.42;1.02;;;;;;;-2.35;85.67;99315.19;5042394;28;20096;-62
2022/02/22 03:34:28;;;;;;;2.15;1.25;;;;;;;-2.33;85.34;99331.31;5042729;28;20063;-62
2022/02/22 03:36:54;;;;;;;1.20;1.10;;;;;;;-2.31;85.38;99337.31;5042586;28;20037;-62
2022/02/22 03:39:19;;;;;;;1.75;1.33;;;;;;;-2.31;85.57;99333.91;5042719;28;20028;-62
2022/02/22 03:41:44;;;;;;;5.45;1.40;;;;;;;-2.32;85.53;99329.66;5042758;28;20041;-63
2022/02/22 03:44:09;;;;;;;8.95;1.40;;;;;;;-2.35;85.48;99338.06;5042532;28;20013;-63
2022/02/22 03:46:35;;;;;;;2.15;1.50;;;;;;;-2.34;85.49;99334.69;5042563;28;20409;-63
2022/02/22 03:49:00;;;;;;;2.05;1.20;;;;;;;-2.32;85.40;99342.34;5042789;28;20022;-63
2022/02/22 03:51:26;;;;;;;4.20;1.00;;;;;;;-2.29;85.53;99344.97;5042667;28;20341;-62
2022/02/22 03:53:51;;;;;;;2.72;1.20;;;;;;;-2.30;85.69;99343.25;5042550;28;20497;-62
2022/02/22 03:56:16;;;;;;;2.35;1.13;;;;;;;-2.33;85.64;99341.47;5045680;28;20030;-62
2022/02/22 03:58:43;;;;;;;1.90;1.10;;;;;;;-2.35;85.37;99343.16;5045911;28;20104;-63
2022/02/22 04:01:08;;;;;;;1.02;0.90;;;;;;;-2.34;85.47;99354.16;5046263;28;20027;-63
2022/02/22 04:03:33;;;;;;;2.40;1.23;;;;;;;-2.34;85.39;99372.81;5046312;28;20057;-63
2022/02/22 04:05:59;;;;;;;4.63;1.33;;;;;;;-2.39;85.36;99375.25;5046252;28;20520;-63
2022/02/22 04:08:24;;;;;;;1.77;1.20;;;;;;;-2.39;85.64;99375.25;5046343;28;20089;-63
2022/02/22 04:10:50;;;;;;;4.35;1.33;;;;;;;-2.38;85.61;99386.28;5046195;28;20025;-63
2022/02/22 04:13:16;;;;;;;2.63;1.25;;;;;;;-2.41;85.48;99392.13;5045779;28;20049;-63
2022/02/22 04:15:41;;;;;;;2.47;2.13;;;;;;;-2.40;85.67;99405.72;5046017;28;20374;-63
2022/02/22 04:18:06;;;;;;;2.83;1.17;;;;;;;-2.41;85.78;99404.84;5045984;28;20109;-64
2022/02/22 04:20:32;;;;;;;1.65;1.20;;;;;;;-2.40;85.69;99410.78;5044632;28;20038;-63
2022/02/22 04:22:57;;;;;;;1.52;0.98;;;;;;;-2.43;85.63;99415.78;5046014;28;20018;-64
2022/02/22 04:25:22;;;;;;;2.05;1.02;;;;;;;-2.43;85.62;99416.63;5046069;28;20099;-64
2022/02/22 04:27:48;;;;;;;1.45;1.00;;;;;;;-2.44;85.57;99425.09;5045648;28;20073;-63
2022/02/22 04:30:13;;;;;;;2.20;1.10;;;;;;;-2.44;85.64;99424.22;5045697;28;20033;-63
2022/02/22 04:32:39;;;;;;;2.88;1.13;;;;;;;-2.47;85.62;99419.91;5046123;28;20057;-64
2022/02/22 04:35:05;;;;;;;1.30;1.00;;;;;;;-2.45;85.73;99425.03;5045829;28;20025;-63
2022/02/22 04:37:31;;;;;;;2.00;1.27;;;;;;;-2.46;85.55;99420.78;5060942;28;20025;-62
2022/02/22 04:39:58;;;;;;;6.93;1.13;;;;;;;-2.44;85.48;99432.72;5045773;28;20026;-62
2022/02/22 04:42:24;;;;;;;1.63;1.10;;;;;;;-2.48;85.37;99428.38;5045594;28;20059;-62
2022/02/22 04:44:49;;;;;;;1.40;1.20;;;;;;;-2.47;85.43;99432.63;5045487;28;20021;-64
2022/02/22 04:47:14;;;;;;;3.65;1.10;;;;;;;-2.48;85.48;99430.91;5045670;28;20057;-62
2022/02/22 04:49:40;;;;;;;1.50;1.00;;;;;;;-2.50;85.43;99435.94;5045570;28;20098;-63
2022/02/22 04:52:08;;;;;;;1.85;1.10;;;;;;;-2.53;85.44;99438.41;5045546;28;20025;-63
2022/02/22 04:54:33;;;;;;;2.67;1.08;;;;;;;-2.53;85.61;99446.03;5045688;28;20088;-62
2022/02/22 04:56:59;;;;;;;2.00;1.20;;;;;;;-2.52;85.48;99447.75;5045268;28;20025;-63
2022/02/22 04:59:24;;;;;;;2.75;1.02;;;;;;;-2.53;85.57;99456.19;5045234;28;20087;-63
2022/02/22 05:01:50;;;;;;;1.17;1.08;;;;;;;-2.54;85.49;99444.28;5045461;28;20060;-63
2022/02/22 05:04:16;;;;;;;2.92;0.95;;;;;;;-2.58;85.53;99451.78;5045402;28;20085;-63
2022/02/22 05:06:42;;;;;;;2.67;1.08;;;;;;;-2.58;85.34;99456.84;5044547;28;20044;-63
2022/02/22 05:09:08;;;;;;;2.00;1.15;;;;;;;-2.60;85.10;99463.59;5045188;28;20025;-63
2022/02/22 05:11:34;;;;;;;1.75;1.10;;;;;;;-2.60;85.16;99468.69;5045080;28;20028;-63
2022/02/22 05:14:02;;;;;;;1.77;1.05;;;;;;;-2.62;84.93;99471.19;5044689;28;20057;-64
2022/02/22 05:16:28;;;;;;;2.63;1.05;;;;;;;-2.58;85.25;99482.28;5045076;28;20044;-64
2022/02/22 05:18:53;;;;;;;1.40;0.93;;;;;;;-2.58;85.43;99470.44;5045117;28;20033;-63
2022/02/22 05:21:18;;;;;;;1.92;1.00;;;;;;;-2.60;85.25;99474.59;5044931;28;20473;-64
2022/02/22 05:23:43;;;;;;;1.90;1.05;;;;;;;-2.63;84.88;99475.38;5045052;28;20036;-63
2022/02/22 05:26:11;;;;;;;1.60;0.93;;;;;;;-2.62;84.74;99486.44;5044799;28;20483;-63
2022/02/22 05:28:37;;;;;;;2.75;1.02;;;;;;;-2.63;84.42;99494.84;5044931;28;20341;-63
2022/02/22 05:31:03;;;;;;;1.27;0.85;;;;;;;-2.68;84.25;99493.84;5044778;28;20032;-63
2022/02/22 05:33:28;;;;;;;2.13;0.90;;;;;;;-2.63;84.17;99503.34;5044900;28;20025;-63
2022/02/22 05:35:54;;;;;;;1.38;0.88;;;;;;;-2.64;84.40;99493.13;5044874;28;20033;-63
2022/02/22 05:38:20;;;;;;;2.50;1.10;;;;;;;-2.66;84.22;99489.66;5044800;28;20031;-63
2022/02/22 05:40:45;;;;;;;3.00;1.20;;;;;;;-2.65;84.50;99497.34;5044947;28;20049;-64
2022/02/22 05:43:11;;;;;;;2.20;0.90;;;;;;;-2.59;84.59;99509.38;5042941;28;20017;-63
2022/02/22 05:45:36;;;;;;;3.53;1.02;;;;;;;-2.61;84.86;99511.00;5044196;28;20491;-64
2022/02/22 05:48:02;;;;;;;1.30;1.00;;;;;;;-2.63;84.90;99516.03;5044200;28;20025;-63
2022/02/22 05:50:28;;;;;;;1.17;1.00;;;;;;;-2.71;85.03;99496.28;5044359;28;20022;-63
2022/02/22 05:52:55;;;;;;;1.90;0.98;;;;;;;-2.65;84.73;99511.75;5044578;28;20029;-63
2022/02/22 05:55:21;;;;;;;0.70;0.70;;;;;;;-2.67;84.17;99503.19;5042742;28;20025;-64
2022/02/22 05:57:49;;;;;;;1.13;0.70;;;;;;;-2.64;83.78;99514.34;5044188;28;20121;-64
2022/02/22 06:00:15;;;;;;;1.13;0.95;;;;;;;-2.63;83.52;99525.34;5044113;28;20029;-65
2022/02/22 06:02:40;;;;;;;2.17;1.10;;;;;;;-2.66;83.63;99549.00;5044276;28;20036;-64
2022/02/22 06:05:06;;;;;;;1.50;0.95;;;;;;;-2.64;84.08;99555.00;5044086;28;20092;-63
2022/02/22 06:07:32;;;;;;;2.58;1.00;;;;;;;-2.65;84.18;99539.69;5059218;28;20115;-61
2022/02/22 06:09:57;;;;;;;1.52;0.93;;;;;;;-2.65;83.95;99532.06;5044027;28;20137;-63
2022/02/22 06:12:22;;;;;;;0.90;0.90;;;;;;;-2.64;83.61;99532.13;5043743;28;20025;-64
2022/02/22 06:14:48;;;;;;;1.23;1.10;;;;;;;-2.63;83.59;99545.66;5043503;28;20049;-64
2022/02/22 06:17:13;;;;;;;1.92;1.10;;;;;;;-2.65;83.42;99552.41;5043074;28;20045;-63
2022/02/22 06:19:39;;;;;;;2.17;1.33;;;;;;;-2.65;83.70;99557.50;5043702;28;20108;-63
2022/02/22 06:22:04;;;;;;;1.10;0.93;;;;;;;-2.64;83.92;99555.00;5043574;28;20021;-63
2022/02/22 06:24:30;;;;;;;0.98;0.80;;;;;;;-2.66;83.96;99560.81;5043622;28;20025;-64
2022/02/22 06:26:55;;;;;;;3.65;1.50;;;;;;;-2.69;83.99;99565.81;5042208;28;20017;-63
2022/02/22 06:29:21;;;;;;;3.60;1.00;;;;;;;-2.68;83.86;99578.56;5043321;28;20029;-63
2022/02/22 06:31:48;;;;;;;1.65;1.00;;;;;;;-2.68;84.16;99587.84;5043751;28;20022;-64
2022/02/22 06:34:14;;;;;;;1.90;1.20;;;;;;;-2.68;84.29;99585.31;5042290;28;20072;-64
2022/02/22 06:36:39;;;;;;;2.17;1.23;;;;;;;-2.67;84.39;99589.59;5043719;28;20017;-63
2022/02/22 06:39:04;;;;;;;2.28;1.02;;;;;;;-2.70;84.36;99589.50;5043544;28;20232;-65
2022/02/22 06:41:30;;;;;;;2.53;1.30;;;;;;;-2.70;83.95;99589.50;5043620;28;20025;-64
2022/02/22 06:43:55;;;;;;;1.08;0.98;;;;;;;-2.66;84.06;99604.03;5043338;28;20029;-64
2022/02/22 06:46:20;;;;;;;2.83;1.00;;;;;;;-2.65;84.27;99603.22;5043657;28;20029;-64
2022/02/22 06:48:46;;;;;;;2.08;1.23;;;;;;;-2.63;84.20;99609.19;5041628;28;20021;-64
2022/02/22 06:51:11;;;;;;;4.40;1.15;;;;;;;-2.60;84.35;99606.75;5042792;28;20020;-63
2022/02/22 06:53:37;;;;;;;1.67;0.90;;;;;;;-2.61;84.40;99602.50;5041950;28;20034;-65
2022/02/22 06:56:03;;;;;;;2.63;0.93;;;;;;;-2.55;84.48;99606.91;5043400;28;20072;-65
2022/02/22 06:58:29;;;;;;;1.90;1.05;;;;;;;-2.53;84.44;99602.75;5043356;28;20100;-64
2022/02/22 07:00:56;;;;;;;5.03;1.10;;;;;;;-2.48;84.56;99611.38;5043033;28;20033;-63
2022/02/22 07:03:21;;;;;;;2.10;1.20;;;;;;;-2.45;84.77;99616.56;5043114;28;20022;-63
2022/02/22 07:05:47;;;;;;;2.88;1.10;;;;;;;-2.41;84.60;99617.53;5043047;28;20056;-63
2022/02/22 07:08:12;;;;;;;1.65;1.13;;;;;;;-2.38;84.44;99617.63;5043170;28;20044;-64
2022/02/22 07:10:38;;;;;;;1.63;1.10;;;;;;;-2.28;84.30;99624.72;5043037;28;20084;-63
2022/02/22 07:13:03;;;;;;;7.13;1.35;;;;;;;-2.01;84.80;99616.19;5042884;28;20021;-63
2022/02/22 07:15:28;;;;;;;3.47;1.08;;;;;;;-1.34;85.59;99614.66;5042750;28;20025;-64
2022/02/22 07:17:57;;;;;;;3.85;1.02;;;;;;;-0.63;85.60;99623.31;5042871;28;20029;-64
2022/02/22 07:20:24;;;;;;;1.80;0.60;;;;;;;-0.06;84.71;99635.66;5042924;28;20032;-65
2022/02/22 07:22:50;;;;;;;8.15;1.10;;;;;;;0.62;84.99;99620.03;5043080;28;20025;-65
2022/02/22 07:25:17;;;;;;;3.17;1.13;;;;;;;1.38;83.88;99633.28;5042982;28;20048;-65
2022/02/22 07:27:46;;;;;;;2.22;0.90;;;;;;;1.82;82.81;99628.88;5042089;28;20036;-65
2022/02/22 07:30:17;;;;;;;2.17;0.77;;;;;;;2.04;82.08;99624.03;5045161;28;20041;-64
2022/02/22 07:32:43;;;;;;;1.30;0.80;;;;;;;2.07;79.63;99619.84;5046933;28;20024;-64
2022/02/22 07:35:09;;;;;;;0.93;0.70;;;;;;;2.01;78.98;99619.75;5060283;23;20045;-69
2022/02/22 07:37:43;;;;;;;3.03;1.27;;;;;;;2.12;80.20;99642.06;5065441;28;20017;-70
2022/02/22 07:40:10;;;;;;;1.30;1.00;;;;;;;2.54;83.82;99651.16;5063956;28;20055;-69
2022/02/22 07:42:36;;;;;;;2.47;1.20;;;;;;;2.56;83.99;99623.84;5066392;28;20416;-69
2022/02/22 07:45:03;;;;;;;1.70;0.77;;;;;;;2.69;80.34;99645.38;5066373;28;20510;-69
2022/02/22 07:47:29;;;;;;;2.80;1.38;;;;;;;2.55;79.09;99629.81;5066258;28;20051;-69
2022/02/22 07:49:54;;;;;;;2.55;1.10;;;;;;;2.43;79.30;99637.38;5066395;28;20025;-69
2022/02/22 07:52:20;;;;;;;1.67;1.02;;;;;;;2.35;79.11;99653.50;5066381;28;20029;-70
2022/02/22 07:54:46;;;;;;;2.67;1.10;;;;;;;2.42;79.27;99651.88;5066262;28;20107;-68
2022/02/22 07:57:12;;;;;;;4.13;1.38;;;;;;;2.26;77.42;99620.06;5065875;28;20021;-68
2022/02/22 07:59:37;;;;;;;1.80;1.08;;;;;;;2.13;77.53;99623.28;5065174;28;20027;-68
2022/02/22 08:02:03;;;;;;;1.75;1.08;;;;;;;2.27;78.70;99654.25;5064782;28;20025;-68
2022/02/22 08:04:28;;;;;;;3.22;1.27;;;;;;;2.57;80.76;99665.72;5064251;28;20031;-69
2022/02/22 08:06:57;;;;;;;2.72;1.00;;;;;;;2.90;79.91;99664.41;5065270;28;20017;-70
2022/02/22 08:09:23;;;;;;;1.55;1.00;;;;;;;3.15;78.72;99680.03;5065718;28;20065;-68
2022/02/22 08:11:49;;;;;;;3.33;1.40;;;;;;;3.79;79.75;99672.91;5065965;28;20029;-69
2022/02/22 08:14:15;;;;;;;2.35;1.10;;;;;;;4.44;76.90;99662.16;5065680;28;20025;-68
2022/02/22 08:16:40;;;;;;;2.10;1.20;;;;;;;4.66;74.47;99664.84;5065675;28;20033;-69
2022/02/22 08:19:07;;;;;;;1.98;1.05;;;;;;;4.75;73.11;99655.41;5065759;28;20025;-70
2022/02/22 08:21:32;;;;;;;2.35;0.93;;;;;;;4.75;72.06;99646.00;5065798;28;20029;-69
2022/02/22 08:23:58;;;;;;;4.05;1.17;;;;;;;4.84;70.93;99665.72;5065654;28;20071;-70
2022/02/22 08:26:23;;;;;;;1.30;0.90;;;;;;;5.01;71.78;99670.06;5065688;28;20043;-70
2022/02/22 08:28:48;;;;;;;3.80;1.05;;;;;;;5.30;71.28;99682.16;5065493;28;20025;-68
2022/02/22 08:31:14;;;;;;;1.55;1.00;;;;;;;5.72;70.38;99677.00;5065442;28;20255;-69
2022/02/22 08:33:40;;;;;;;3.60;0.82;;;;;;;6.06;68.71;99683.88;5065624;28;20024;-69
2022/02/22 08:36:05;;;;;;;1.98;0.90;;;;;;;6.20;67.78;99677.00;5065514;28;20048;-69
2022/02/22 08:38:32;;;;;;;2.22;1.08;;;;;;;6.37;67.58;99670.94;5065355;28;20028;-69
2022/02/22 08:40:57;;;;;;;2.58;1.23;;;;;;;6.65;65.48;99688.03;5064561;28;20045;-69
2022/02/22 08:43:23;;;;;;;3.13;1.17;;;;;;;6.81;64.61;99696.56;5065385;28;20036;-69
2022/02/22 08:45:48;;;;;;;1.55;1.10;;;;;;;6.87;63.88;99706.00;5065094;28;20024;-69
2022/02/22 08:48:14;;;;;;;3.25;1.20;;;;;;;6.92;64.21;99710.28;5065235;28;20043;-70
2022/02/22 08:50:41;;;;;;;1.55;0.85;;;;;;;7.05;61.69;99715.38;5065171;28;20033;-69
2022/02/22 08:53:07;;;;;;;2.67;1.55;;;;;;;7.26;63.63;99714.41;5065112;28;20029;-68
2022/02/22 08:55:34;;;;;;;1.60;1.00;;;;;;;7.63;61.28;99707.28;5065136;28;20088;-68
2022/02/22 08:58:01;;;;;;;2.10;1.05;;;;;;;7.84;63.26;99726.06;5065078;28;20021;-68
2022/02/22 09:00:28;;;;;;;2.13;1.10;;;;;;;8.21;61.36;99727.47;5064680;28;20104;-68
2022/02/22 09:02:57;;;;;;;1.63;1.08;;;;;;;8.01;58.87;99718.16;5065107;28;20044;-68
2022/02/22 09:05:24;;;;;;;2.35;0.90;;;;;;;8.04;61.44;99731.06;5064973;28;20021;-68
2022/02/22 09:07:50;;;;;;;3.10;1.00;;;;;;;8.14;59.46;99730.13;5064622;28;20040;-67
2022/02/22 09:10:16;;;;;;;12.38;1.45;;;;;;;8.20;60.84;99739.53;5064874;28;20021;-68
2022/02/22 09:12:46;;;;;;;1.58;0.90;;;;;;;7.80;59.66;99741.59;5063487;28;20088;-67
2022/02/22 09:15:12;;;;;;;2.42;1.00;;;;;;;7.58;58.63;99735.72;5064157;28;20029;-67
2022/02/22 09:17:38;;;;;;;2.35;1.00;;;;;;;7.61;62.01;99737.41;5063130;28;20436;-67
2022/02/22 09:20:05;;;;;;;2.28;1.00;;;;;;;7.80;62.01;99733.84;5064610;28;20017;-68
2022/02/22 09:22:31;;;;;;;3.40;1.05;;;;;;;7.97;61.83;99724.25;5064542;28;20154;-68
2022/02/22 09:24:56;;;;;;;2.22;1.10;;;;;;;7.94;62.80;99736.31;5064090;28;20021;-67
2022/02/22 09:27:22;;;;;;;1.83;1.13;;;;;;;7.55;63.87;99728.00;5064092;28;20039;-67
2022/02/22 09:29:47;;;;;;;2.13;1.10;;;;;;;7.28;64.13;99738.50;5064516;28;20025;-68
2022/02/22 09:32:13;;;;;;;3.75;1.23;;;;;;;6.82;65.19;99744.75;5046192;28;20052;-67
2022/02/22 09:34:38;;;;;;;3.67;1.20;;;;;;;6.29;66.60;99726.81;5064193;28;20071;-67
2022/02/22 09:37:05;;;;;;;4.50;1.23;;;;;;;6.03;65.23;99748.28;5064088;28;20096;-68
2022/02/22 09:39:31;;;;;;;4.70;1.30;;;;;;;5.85;65.72;99742.25;5063349;28;20028;-67
2022/02/22 09:41:58;;;;;;;2.13;1.20;;;;;;;5.77;67.33;99742.25;5063398;28;20056;-65
2022/02/22 09:44:23;;;;;;;1.83;0.95;;;;;;;5.74;68.57;99733.66;5064095;28;20043;-68
2022/02/22 09:46:50;;;;;;;3.22;1.10;;;;;;;5.50;66.53;99722.50;5063996;28;20076;-68
2022/02/22 09:49:16;;;;;;;2.72;1.15;;;;;;;4.88;64.03;99706.06;5063779;28;20032;-68
2022/02/22 09:51:41;;;;;;;1.50;1.10;;;;;;;4.53;66.16;99706.75;5063903;28;20029;-68
2022/02/22 09:54:06;;;;;;;1.45;0.90;;;;;;;4.36;66.42;99715.22;5063977;28;20032;-69
2022/02/22 09:56:33;;;;;;;4.80;1.20;;;;;;;4.49;69.22;99708.44;5063991;28;20554;-69
2022/02/22 09:58:58;;;;;;;3.85;0.90;;;;;;;4.52;68.97;99698.16;5063573;28;20124;-68
2022/02/22 10:01:25;;;;;;;2.97;0.90;;;;;;;4.80;70.65;99700.88;5045910;28;20021;-66
2022/02/22 10:03:57;;;;;;;3.60;1.08;;;;;;;4.59;70.19;99681.06;5063612;28;20503;-67
2022/02/22 10:06:25;;;;;;;1.42;1.00;;;;;;;4.57;71.64;99701.63;5064036;28;20051;-67
2022/02/22 10:08:55;;;;;;;1.77;1.00;;;;;;;4.65;72.10;99706.81;5063339;28;20108;-67
2022/02/22 10:11:21;;;;;;;1.48;0.80;;;;;;;4.76;71.70;99708.59;5063543;28;20021;-68
2022/02/22 10:13:47;;;;;;;2.00;0.90;;;;;;;5.03;72.92;99702.66;5063611;28;20090;-67
2022/02/22 10:16:14;;;;;;;3.63;1.00;;;;;;;5.22;73.50;99713.03;5063220;28;20025;-67
2022/02/22 10:18:49;;;;;;;3.03;0.98;;;;;;;5.19;69.87;99713.00;5063257;28;20036;-67
2022/02/22 10:21:15;;;;;;;1.65;0.90;;;;;;;5.39;72.29;99717.31;5045617;28;20020;-67
2022/02/22 10:23:41;;;;;;;2.60;1.10;;;;;;;5.39;71.51;99710.47;5063308;28;20052;-67
2022/02/22 10:26:07;;;;;;;2.28;1.00;;;;;;;5.18;71.69;99707.00;5062711;28;20017;-68
2022/02/22 10:28:32;;;;;;;2.70;1.10;;;;;;;4.93;71.22;99695.78;5062555;28;20017;-69
2022/02/22 10:30:57;;;;;;;1.45;1.00;;;;;;;4.91;72.57;99692.34;5063156;28;20108;-68
2022/02/22 10:33:24;;;;;;;2.63;0.93;;;;;;;4.80;72.57;99710.31;5063534;28;20032;-67
2022/02/22 10:35:51;;;;;;;2.15;0.93;;;;;;;4.70;71.41;99711.97;5044824;28;20323;-68
2022/02/22 10:38:21;;;;;;;2.17;1.13;;;;;;;4.64;72.53;99715.38;5062938;28;20035;-68
2022/02/22 10:41:01;;;;;;;9.10;1.50;;;;;;;4.45;71.04;99727.28;5063557;28;20024;-68
2022/02/22 10:43:32;;;;;;;4.20;1.08;;;;;;;4.15;67.77;99724.53;5063256;28;20040;-68
2022/02/22 10:46:00;;;;;;;2.53;1.10;;;;;;;3.71;66.27;99719.06;5063291;28;20377;-68
2022/02/22 10:48:28;;;;;;;3.08;1.00;;;;;;;3.26;66.67;99716.06;5063140;28;20024;-68
2022/02/22 10:50:55;;;;;;;2.30;1.10;;;;;;;3.15;68.15;99718.50;5063261;28;20067;-68
2022/02/22 10:53:26;;;;;;;4.63;1.08;;;;;;;3.24;68.96;99716.88;5063284;28;20051;-68
2022/02/22 10:55:52;;;;;;;;;;;;;;;3.35;68.84;99723.00;5063558;28;20120;-68
2022/02/22 10:58:18;;;;;;;3.10;1.00;;;;;;;3.46;72.14;99723.97;5062687;28;19980;-69
2022/02/22 11:00:44;;;;;;;1.55;0.90;;;;;;;3.58;72.22;99724.91;5062739;28;20024;-68
2022/02/22 11:03:09;;;;;;;3.63;1.17;;;;;;;3.72;72.35;99732.75;5063638;28;20029;-68
2022/02/22 11:05:35;;;;;;;1.25;0.80;;;;;;;3.84;72.04;99739.69;5069130;28;20029;-68
2022/02/22 11:08:01;;;;;;;2.03;1.10;;;;;;;3.90;71.12;99741.47;5051299;28;20044;-67
2022/02/22 11:10:28;;;;;;;8.48;1.17;;;;;;;3.98;70.01;99739.78;5069598;28;20421;-67
2022/02/22 11:12:59;;;;;;;3.47;1.00;;;;;;;3.95;69.91;99735.50;5069516;28;20031;-66
2022/02/22 11:15:35;;;;;;;2.53;2.30;;;;;;;3.81;69.83;99752.50;5069238;28;20021;-66
2022/02/22 11:18:14;;;;;;;3.60;1.00;;;;;;;3.71;70.11;99736.16;5069560;28;20024;-67
2022/02/22 11:20:41;;;;;;;1.80;1.17;;;;;;;3.59;69.13;99721.50;5069617;28;20029;-67
2022/02/22 11:23:09;;;;;;;5.25;1.38;;;;;;;3.54;68.48;99718.91;5069579;28;20024;-67
2022/02/22 11:25:36;;;;;;;3.92;1.30;;;;;;;3.51;66.95;99735.97;5069271;28;20021;-67
2022/02/22 11:28:07;;;;;;;2.67;1.38;;;;;;;3.50;68.25;99718.88;5068227;28;20051;-67
2022/02/22 11:30:34;;;;;;;1.95;1.27;;;;;;;3.46;71.28;99717.97;5068349;28;20029;-68